Wetterdaten für den Flughafen Lübeck Blankensee


ADDS - METARS form results Aviation Digital Data Service (ADDS) Output produced by METARs form (2246 UTC 20 September 2020)
found at http://www.aviationweather.gov/metar/data/
 
EDHL 202020Z 04002KT CAVOK 11/11 Q1020
TAF EDHL 201700Z 2018/2021 05007KT CAVOK BECMG 2018/2020 VRB02KT PROB30 TEMPO 2020/2021 4500 BCFG

Nord: Hamburg, Lübeck
Ost: Schwerin, Rostock
Süd: Hannover
West: Bremen, Nordhloz

 

Copyright © 2016 Flugschule Hohensee